<?xml version="1.0" encoding="UTF-8" standalone="no" ?>
<gpx xmlns="http://www.topografix.com/GPX/1/1" xmlns:xsi="http://www.w3.org/2001/XMLSchema-instance" xsi:schemaLocation="http://www.topografix.com/GPX/1/1 http://www.topografix.com/GPX/1/1/gpx.xsd" version="1.1" creator="VisuGPX - https://www.visugpx.com">
  <metadata>
    <name>ST GENEST MALIFAUX CHAUSSITRE</name>
    <desc><![CDATA[A CHAUSSITRE très belle vue sur le Mont Blanc et présence d'un hêtre pluricentenaire]]></desc>
  </metadata>
  <trk>
    <name><![CDATA[ST GENST MALIFAUX CHAUSSITRE]]></name>
    <trkseg>
      <trkpt lat="45.31699" lon="4.42937">
        <ele>1054</ele>
        <time>2016-02-21T14:16:04.000Z</time>
      </trkpt>
      <trkpt lat="45.31694" lon="4.42968">
        <ele>1053</ele>
        <time>2016-02-21T14:17:10.000Z</time>
      </trkpt>
      <trkpt lat="45.31694" lon="4.4297">
        <ele>1053</ele>
        <time>2016-02-21T14:17:11.000Z</time>
      </trkpt>
      <trkpt lat="45.31693" lon="4.43004">
        <ele>1053</ele>
        <time>2016-02-21T14:17:29.000Z</time>
      </trkpt>
      <trkpt lat="45.31693" lon="4.43006">
        <ele>1053</ele>
        <time>2016-02-21T14:17:30.000Z</time>
      </trkpt>
      <trkpt lat="45.31695" lon="4.43038">
        <ele>1054</ele>
        <time>2016-02-21T14:17:48.000Z</time>
      </trkpt>
      <trkpt lat="45.31694" lon="4.4304">
        <ele>1054</ele>
        <time>2016-02-21T14:17:49.000Z</time>
      </trkpt>
      <trkpt lat="45.31696" lon="4.43072">
        <ele>1056</ele>
        <time>2016-02-21T14:18:07.000Z</time>
      </trkpt>
      <trkpt lat="45.31697" lon="4.43074">
        <ele>1056</ele>
        <time>2016-02-21T14:18:08.000Z</time>
      </trkpt>
      <trkpt lat="45.31701" lon="4.43106">
        <ele>1056</ele>
        <time>2016-02-21T14:18:27.000Z</time>
      </trkpt>
      <trkpt lat="45.31701" lon="4.43107">
        <ele>1056</ele>
        <time>2016-02-21T14:18:28.000Z</time>
      </trkpt>
      <trkpt lat="45.31705" lon="4.4314">
        <ele>1058</ele>
        <time>2016-02-21T14:18:46.000Z</time>
      </trkpt>
      <trkpt lat="45.31705" lon="4.43141">
        <ele>1059</ele>
        <time>2016-02-21T14:18:47.000Z</time>
      </trkpt>
      <trkpt lat="45.31708" lon="4.43173">
        <ele>1061</ele>
        <time>2016-02-21T14:19:10.000Z</time>
      </trkpt>
      <trkpt lat="45.31708" lon="4.43174">
        <ele>1061</ele>
        <time>2016-02-21T14:19:11.000Z</time>
      </trkpt>
      <trkpt lat="45.3171" lon="4.43207">
        <ele>1064</ele>
        <time>2016-02-21T14:19:33.000Z</time>
      </trkpt>
      <trkpt lat="45.3171" lon="4.43208">
        <ele>1064</ele>
        <time>2016-02-21T14:19:34.000Z</time>
      </trkpt>
      <trkpt lat="45.31708" lon="4.4324">
        <ele>1067</ele>
        <time>2016-02-21T14:19:56.000Z</time>
      </trkpt>
      <trkpt lat="45.31708" lon="4.43242">
        <ele>1068</ele>
        <time>2016-02-21T14:19:57.000Z</time>
      </trkpt>
      <trkpt lat="45.31702" lon="4.43274">
        <ele>1069</ele>
        <time>2016-02-21T14:20:19.000Z</time>
      </trkpt>
      <trkpt lat="45.31702" lon="4.43275">
        <ele>1069</ele>
        <time>2016-02-21T14:20:20.000Z</time>
      </trkpt>
      <trkpt lat="45.31698" lon="4.43308">
        <ele>1069</ele>
        <time>2016-02-21T14:20:41.000Z</time>
      </trkpt>
      <trkpt lat="45.31698" lon="4.43309">
        <ele>1069</ele>
        <time>2016-02-21T14:20:42.000Z</time>
      </trkpt>
      <trkpt lat="45.31697" lon="4.43342">
        <ele>1071</ele>
        <time>2016-02-21T14:21:04.000Z</time>
      </trkpt>
      <trkpt lat="45.31697" lon="4.43344">
        <ele>1071</ele>
        <time>2016-02-21T14:21:05.000Z</time>
      </trkpt>
      <trkpt lat="45.31696" lon="4.43377">
        <ele>1075</ele>
        <time>2016-02-21T14:21:25.000Z</time>
      </trkpt>
      <trkpt lat="45.31696" lon="4.43378">
        <ele>1075</ele>
        <time>2016-02-21T14:21:26.000Z</time>
      </trkpt>
      <trkpt lat="45.31695" lon="4.43411">
        <ele>1081</ele>
        <time>2016-02-21T14:21:45.000Z</time>
      </trkpt>
      <trkpt lat="45.31695" lon="4.43412">
        <ele>1081</ele>
        <time>2016-02-21T14:21:46.000Z</time>
      </trkpt>
      <trkpt lat="45.31697" lon="4.43444">
        <ele>1085</ele>
        <time>2016-02-21T14:22:05.000Z</time>
      </trkpt>
      <trkpt lat="45.31697" lon="4.43446">
        <ele>1085</ele>
        <time>2016-02-21T14:22:06.000Z</time>
      </trkpt>
      <trkpt lat="45.31704" lon="4.43476">
        <ele>1087</ele>
        <time>2016-02-21T14:22:26.000Z</time>
      </trkpt>
      <trkpt lat="45.31704" lon="4.43477">
        <ele>1087</ele>
        <time>2016-02-21T14:22:27.000Z</time>
      </trkpt>
      <trkpt lat="45.31711" lon="4.43508">
        <ele>1089</ele>
        <time>2016-02-21T14:22:48.000Z</time>
      </trkpt>
      <trkpt lat="45.31712" lon="4.4351">
        <ele>1089</ele>
        <time>2016-02-21T14:22:49.000Z</time>
      </trkpt>
      <trkpt lat="45.31715" lon="4.43542">
        <ele>1089</ele>
        <time>2016-02-21T14:23:10.000Z</time>
      </trkpt>
      <trkpt lat="45.31715" lon="4.43543">
        <ele>1089</ele>
        <time>2016-02-21T14:23:11.000Z</time>
      </trkpt>
      <trkpt lat="45.31708" lon="4.43575">
        <ele>1090</ele>
        <time>2016-02-21T14:23:30.000Z</time>
      </trkpt>
      <trkpt lat="45.31708" lon="4.43576">
        <ele>1090</ele>
        <time>2016-02-21T14:23:31.000Z</time>
      </trkpt>
      <trkpt lat="45.31699" lon="4.43606">
        <ele>1090</ele>
        <time>2016-02-21T14:23:50.000Z</time>
      </trkpt>
      <trkpt lat="45.31699" lon="4.43608">
        <ele>1089</ele>
        <time>2016-02-21T14:23:51.000Z</time>
      </trkpt>
      <trkpt lat="45.31687" lon="4.43636">
        <ele>1085</ele>
        <time>2016-02-21T14:24:11.000Z</time>
      </trkpt>
      <trkpt lat="45.31686" lon="4.43638">
        <ele>1085</ele>
        <time>2016-02-21T14:24:12.000Z</time>
      </trkpt>
      <trkpt lat="45.31668" lon="4.43658">
        <ele>1082</ele>
        <time>2016-02-21T14:24:31.000Z</time>
      </trkpt>
      <trkpt lat="45.31667" lon="4.43659">
        <ele>1081</ele>
        <time>2016-02-21T14:24:32.000Z</time>
      </trkpt>
      <trkpt lat="45.31649" lon="4.43681">
        <ele>1083</ele>
        <time>2016-02-21T14:24:51.000Z</time>
      </trkpt>
      <trkpt lat="45.31649" lon="4.43682">
        <ele>1083</ele>
        <time>2016-02-21T14:24:52.000Z</time>
      </trkpt>
      <trkpt lat="45.31633" lon="4.43706">
        <ele>1085</ele>
        <time>2016-02-21T14:25:12.000Z</time>
      </trkpt>
      <trkpt lat="45.31632" lon="4.43707">
        <ele>1085</ele>
        <time>2016-02-21T14:25:13.000Z</time>
      </trkpt>
      <trkpt lat="45.31613" lon="4.43725">
        <ele>1086</ele>
        <time>2016-02-21T14:25:38.000Z</time>
      </trkpt>
      <trkpt lat="45.31612" lon="4.43725">
        <ele>1086</ele>
        <time>2016-02-21T14:25:39.000Z</time>
      </trkpt>
      <trkpt lat="45.31593" lon="4.43743">
        <ele>1091</ele>
        <time>2016-02-21T14:26:48.000Z</time>
      </trkpt>
      <trkpt lat="45.31592" lon="4.43744">
        <ele>1090</ele>
        <time>2016-02-21T14:26:49.000Z</time>
      </trkpt>
      <trkpt lat="45.31569" lon="4.4375">
        <ele>1090</ele>
        <time>2016-02-21T14:27:18.000Z</time>
      </trkpt>
      <trkpt lat="45.31568" lon="4.4375">
        <ele>1091</ele>
        <time>2016-02-21T14:27:19.000Z</time>
      </trkpt>
      <trkpt lat="45.31546" lon="4.4376">
        <ele>1091</ele>
        <time>2016-02-21T14:27:45.000Z</time>
      </trkpt>
      <trkpt lat="45.31545" lon="4.4376">
        <ele>1091</ele>
        <time>2016-02-21T14:27:46.000Z</time>
      </trkpt>
      <trkpt lat="45.31524" lon="4.43747">
        <ele>1086</ele>
        <time>2016-02-21T14:28:12.000Z</time>
      </trkpt>
      <trkpt lat="45.31522" lon="4.43746">
        <ele>1086</ele>
        <time>2016-02-21T14:28:13.000Z</time>
      </trkpt>
      <trkpt lat="45.31499" lon="4.43744">
        <ele>1087</ele>
        <time>2016-02-21T14:28:30.000Z</time>
      </trkpt>
      <trkpt lat="45.31498" lon="4.43744">
        <ele>1087</ele>
        <time>2016-02-21T14:28:31.000Z</time>
      </trkpt>
      <trkpt lat="45.31475" lon="4.43741">
        <ele>1087</ele>
        <time>2016-02-21T14:28:49.000Z</time>
      </trkpt>
      <trkpt lat="45.31474" lon="4.43741">
        <ele>1087</ele>
        <time>2016-02-21T14:28:50.000Z</time>
      </trkpt>
      <trkpt lat="45.31451" lon="4.43739">
        <ele>1082</ele>
        <time>2016-02-21T14:29:11.000Z</time>
      </trkpt>
      <trkpt lat="45.31449" lon="4.43739">
        <ele>1082</ele>
        <time>2016-02-21T14:29:12.000Z</time>
      </trkpt>
      <trkpt lat="45.31428" lon="4.43727">
        <ele>1090</ele>
        <time>2016-02-21T14:29:34.000Z</time>
      </trkpt>
      <trkpt lat="45.31427" lon="4.43727">
        <ele>1091</ele>
        <time>2016-02-21T14:29:35.000Z</time>
      </trkpt>
      <trkpt lat="45.31404" lon="4.43715">
        <ele>1093</ele>
        <time>2016-02-21T14:30:07.000Z</time>
      </trkpt>
      <trkpt lat="45.31403" lon="4.43716">
        <ele>1093</ele>
        <time>2016-02-21T14:30:08.000Z</time>
      </trkpt>
      <trkpt lat="45.31381" lon="4.4371">
        <ele>1098</ele>
        <time>2016-02-21T14:30:33.000Z</time>
      </trkpt>
      <trkpt lat="45.3138" lon="4.4371">
        <ele>1098</ele>
        <time>2016-02-21T14:30:34.000Z</time>
      </trkpt>
      <trkpt lat="45.31358" lon="4.43703">
        <ele>1100</ele>
        <time>2016-02-21T14:30:55.000Z</time>
      </trkpt>
      <trkpt lat="45.31357" lon="4.43703">
        <ele>1100</ele>
        <time>2016-02-21T14:30:56.000Z</time>
      </trkpt>
      <trkpt lat="45.31335" lon="4.43699">
        <ele>1110</ele>
        <time>2016-02-21T14:31:41.000Z</time>
      </trkpt>
      <trkpt lat="45.31334" lon="4.43699">
        <ele>1110</ele>
        <time>2016-02-21T14:31:42.000Z</time>
      </trkpt>
      <trkpt lat="45.31312" lon="4.43704">
        <ele>1124</ele>
        <time>2016-02-21T14:32:03.000Z</time>
      </trkpt>
      <trkpt lat="45.31311" lon="4.43704">
        <ele>1124</ele>
        <time>2016-02-21T14:32:04.000Z</time>
      </trkpt>
      <trkpt lat="45.31289" lon="4.43713">
        <ele>1116</ele>
        <time>2016-02-21T14:32:31.000Z</time>
      </trkpt>
      <trkpt lat="45.31288" lon="4.43713">
        <ele>1116</ele>
        <time>2016-02-21T14:32:32.000Z</time>
      </trkpt>
      <trkpt lat="45.31264" lon="4.43711">
        <ele>1117</ele>
        <time>2016-02-21T14:32:58.000Z</time>
      </trkpt>
      <trkpt lat="45.31263" lon="4.4371">
        <ele>1117</ele>
        <time>2016-02-21T14:32:59.000Z</time>
      </trkpt>
      <trkpt lat="45.3124" lon="4.43705">
        <ele>1114</ele>
        <time>2016-02-21T14:33:20.000Z</time>
      </trkpt>
      <trkpt lat="45.31239" lon="4.43704">
        <ele>1114</ele>
        <time>2016-02-21T14:33:21.000Z</time>
      </trkpt>
      <trkpt lat="45.31217" lon="4.43698">
        <ele>1116</ele>
        <time>2016-02-21T14:33:41.000Z</time>
      </trkpt>
      <trkpt lat="45.31216" lon="4.43698">
        <ele>1116</ele>
        <time>2016-02-21T14:33:42.000Z</time>
      </trkpt>
      <trkpt lat="45.31194" lon="4.43687">
        <ele>1121</ele>
        <time>2016-02-21T14:34:13.000Z</time>
      </trkpt>
      <trkpt lat="45.31194" lon="4.43687">
        <ele>1122</ele>
        <time>2016-02-21T14:34:14.000Z</time>
      </trkpt>
      <trkpt lat="45.31173" lon="4.43678">
        <ele>1123</ele>
        <time>2016-02-21T14:34:38.000Z</time>
      </trkpt>
      <trkpt lat="45.31172" lon="4.43678">
        <ele>1123</ele>
        <time>2016-02-21T14:34:39.000Z</time>
      </trkpt>
      <trkpt lat="45.31149" lon="4.43674">
        <ele>1124</ele>
        <time>2016-02-21T14:34:59.000Z</time>
      </trkpt>
      <trkpt lat="45.31148" lon="4.43674">
        <ele>1124</ele>
        <time>2016-02-21T14:35:00.000Z</time>
      </trkpt>
      <trkpt lat="45.31125" lon="4.4367">
        <ele>1126</ele>
        <time>2016-02-21T14:35:19.000Z</time>
      </trkpt>
      <trkpt lat="45.31124" lon="4.43669">
        <ele>1126</ele>
        <time>2016-02-21T14:35:20.000Z</time>
      </trkpt>
      <trkpt lat="45.31102" lon="4.43659">
        <ele>1130</ele>
        <time>2016-02-21T14:35:42.000Z</time>
      </trkpt>
      <trkpt lat="45.31101" lon="4.43658">
        <ele>1130</ele>
        <time>2016-02-21T14:35:43.000Z</time>
      </trkpt>
      <trkpt lat="45.31078" lon="4.43647">
        <ele>1132</ele>
        <time>2016-02-21T14:36:06.000Z</time>
      </trkpt>
      <trkpt lat="45.31077" lon="4.43647">
        <ele>1133</ele>
        <time>2016-02-21T14:36:07.000Z</time>
      </trkpt>
      <trkpt lat="45.31055" lon="4.43638">
        <ele>1136</ele>
        <time>2016-02-21T14:36:30.000Z</time>
      </trkpt>
      <trkpt lat="45.31054" lon="4.43638">
        <ele>1136</ele>
        <time>2016-02-21T14:36:31.000Z</time>
      </trkpt>
      <trkpt lat="45.31032" lon="4.43626">
        <ele>1135</ele>
        <time>2016-02-21T14:36:52.000Z</time>
      </trkpt>
      <trkpt lat="45.31031" lon="4.43626">
        <ele>1136</ele>
        <time>2016-02-21T14:36:53.000Z</time>
      </trkpt>
      <trkpt lat="45.31008" lon="4.43621">
        <ele>1136</ele>
        <time>2016-02-21T14:37:14.000Z</time>
      </trkpt>
      <trkpt lat="45.31007" lon="4.43621">
        <ele>1136</ele>
        <time>2016-02-21T14:37:15.000Z</time>
      </trkpt>
      <trkpt lat="45.30987" lon="4.43607">
        <ele>1140</ele>
        <time>2016-02-21T14:37:37.000Z</time>
      </trkpt>
      <trkpt lat="45.30986" lon="4.43607">
        <ele>1140</ele>
        <time>2016-02-21T14:37:38.000Z</time>
      </trkpt>
      <trkpt lat="45.30964" lon="4.43599">
        <ele>1140</ele>
        <time>2016-02-21T14:37:59.000Z</time>
      </trkpt>
      <trkpt lat="45.30964" lon="4.43598">
        <ele>1140</ele>
        <time>2016-02-21T14:38:00.000Z</time>
      </trkpt>
      <trkpt lat="45.30941" lon="4.4359">
        <ele>1141</ele>
        <time>2016-02-21T14:38:23.000Z</time>
      </trkpt>
      <trkpt lat="45.30941" lon="4.43589">
        <ele>1140</ele>
        <time>2016-02-21T14:38:24.000Z</time>
      </trkpt>
      <trkpt lat="45.30919" lon="4.43579">
        <ele>1143</ele>
        <time>2016-02-21T14:38:47.000Z</time>
      </trkpt>
      <trkpt lat="45.30918" lon="4.43579">
        <ele>1143</ele>
        <time>2016-02-21T14:38:48.000Z</time>
      </trkpt>
      <trkpt lat="45.30894" lon="4.4357">
        <ele>1144</ele>
        <time>2016-02-21T14:39:11.000Z</time>
      </trkpt>
      <trkpt lat="45.30893" lon="4.4357">
        <ele>1144</ele>
        <time>2016-02-21T14:39:12.000Z</time>
      </trkpt>
      <trkpt lat="45.30871" lon="4.43559">
        <ele>1145</ele>
        <time>2016-02-21T14:39:33.000Z</time>
      </trkpt>
      <trkpt lat="45.3087" lon="4.43558">
        <ele>1145</ele>
        <time>2016-02-21T14:39:34.000Z</time>
      </trkpt>
      <trkpt lat="45.30848" lon="4.43547">
        <ele>1148</ele>
        <time>2016-02-21T14:39:53.000Z</time>
      </trkpt>
      <trkpt lat="45.30846" lon="4.43546">
        <ele>1148</ele>
        <time>2016-02-21T14:39:54.000Z</time>
      </trkpt>
      <trkpt lat="45.30824" lon="4.43537">
        <ele>1153</ele>
        <time>2016-02-21T14:40:14.000Z</time>
      </trkpt>
      <trkpt lat="45.30823" lon="4.43536">
        <ele>1153</ele>
        <time>2016-02-21T14:40:15.000Z</time>
      </trkpt>
      <trkpt lat="45.308" lon="4.43527">
        <ele>1153</ele>
        <time>2016-02-21T14:40:35.000Z</time>
      </trkpt>
      <trkpt lat="45.30799" lon="4.43527">
        <ele>1153</ele>
        <time>2016-02-21T14:40:36.000Z</time>
      </trkpt>
      <trkpt lat="45.30777" lon="4.43516">
        <ele>1153</ele>
        <time>2016-02-21T14:40:57.000Z</time>
      </trkpt>
      <trkpt lat="45.30776" lon="4.43515">
        <ele>1153</ele>
        <time>2016-02-21T14:40:58.000Z</time>
      </trkpt>
      <trkpt lat="45.30754" lon="4.43507">
        <ele>1152</ele>
        <time>2016-02-21T14:41:16.000Z</time>
      </trkpt>
      <trkpt lat="45.30753" lon="4.43506">
        <ele>1152</ele>
        <time>2016-02-21T14:41:17.000Z</time>
      </trkpt>
      <trkpt lat="45.3073" lon="4.43498">
        <ele>1148</ele>
        <time>2016-02-21T14:41:39.000Z</time>
      </trkpt>
      <trkpt lat="45.30729" lon="4.43497">
        <ele>1147</ele>
        <time>2016-02-21T14:41:40.000Z</time>
      </trkpt>
      <trkpt lat="45.30707" lon="4.43486">
        <ele>1148</ele>
        <time>2016-02-21T14:42:00.000Z</time>
      </trkpt>
      <trkpt lat="45.30706" lon="4.43486">
        <ele>1149</ele>
        <time>2016-02-21T14:42:01.000Z</time>
      </trkpt>
      <trkpt lat="45.30683" lon="4.43477">
        <ele>1151</ele>
        <time>2016-02-21T14:42:22.000Z</time>
      </trkpt>
      <trkpt lat="45.30682" lon="4.43476">
        <ele>1151</ele>
        <time>2016-02-21T14:42:23.000Z</time>
      </trkpt>
      <trkpt lat="45.30659" lon="4.43467">
        <ele>1151</ele>
        <time>2016-02-21T14:42:45.000Z</time>
      </trkpt>
      <trkpt lat="45.30658" lon="4.43466">
        <ele>1151</ele>
        <time>2016-02-21T14:42:46.000Z</time>
      </trkpt>
      <trkpt lat="45.30637" lon="4.43455">
        <ele>1151</ele>
        <time>2016-02-21T14:43:04.000Z</time>
      </trkpt>
      <trkpt lat="45.30636" lon="4.43455">
        <ele>1151</ele>
        <time>2016-02-21T14:43:05.000Z</time>
      </trkpt>
      <trkpt lat="45.30613" lon="4.43458">
        <ele>1149</ele>
        <time>2016-02-21T14:43:29.000Z</time>
      </trkpt>
      <trkpt lat="45.30612" lon="4.43458">
        <ele>1149</ele>
        <time>2016-02-21T14:43:30.000Z</time>
      </trkpt>
      <trkpt lat="45.30595" lon="4.4348">
        <ele>1152</ele>
        <time>2016-02-21T14:43:51.000Z</time>
      </trkpt>
      <trkpt lat="45.30594" lon="4.43481">
        <ele>1152</ele>
        <time>2016-02-21T14:43:52.000Z</time>
      </trkpt>
      <trkpt lat="45.30579" lon="4.43507">
        <ele>1150</ele>
        <time>2016-02-21T14:44:13.000Z</time>
      </trkpt>
      <trkpt lat="45.30579" lon="4.43508">
        <ele>1150</ele>
        <time>2016-02-21T14:44:14.000Z</time>
      </trkpt>
      <trkpt lat="45.30564" lon="4.43534">
        <ele>1149</ele>
        <time>2016-02-21T14:44:35.000Z</time>
      </trkpt>
      <trkpt lat="45.30563" lon="4.43535">
        <ele>1149</ele>
        <time>2016-02-21T14:44:36.000Z</time>
      </trkpt>
      <trkpt lat="45.3055" lon="4.43563">
        <ele>1143</ele>
        <time>2016-02-21T14:44:58.000Z</time>
      </trkpt>
      <trkpt lat="45.3055" lon="4.43564">
        <ele>1143</ele>
        <time>2016-02-21T14:44:59.000Z</time>
      </trkpt>
      <trkpt lat="45.3054" lon="4.43593">
        <ele>1140</ele>
        <time>2016-02-21T14:45:19.000Z</time>
      </trkpt>
      <trkpt lat="45.3054" lon="4.43594">
        <ele>1140</ele>
        <time>2016-02-21T14:45:20.000Z</time>
      </trkpt>
      <trkpt lat="45.30524" lon="4.43618">
        <ele>1141</ele>
        <time>2016-02-21T14:45:38.000Z</time>
      </trkpt>
      <trkpt lat="45.30523" lon="4.43619">
        <ele>1141</ele>
        <time>2016-02-21T14:45:39.000Z</time>
      </trkpt>
      <trkpt lat="45.30502" lon="4.43633">
        <ele>1141</ele>
        <time>2016-02-21T14:46:01.000Z</time>
      </trkpt>
      <trkpt lat="45.30501" lon="4.43633">
        <ele>1140</ele>
        <time>2016-02-21T14:46:02.000Z</time>
      </trkpt>
      <trkpt lat="45.30478" lon="4.43638">
        <ele>1139</ele>
        <time>2016-02-21T14:46:23.000Z</time>
      </trkpt>
      <trkpt lat="45.30478" lon="4.43638">
        <ele>1139</ele>
        <time>2016-02-21T14:46:24.000Z</time>
      </trkpt>
      <trkpt lat="45.30457" lon="4.43653">
        <ele>1141</ele>
        <time>2016-02-21T14:47:12.000Z</time>
      </trkpt>
      <trkpt lat="45.30457" lon="4.43653">
        <ele>1140</ele>
        <time>2016-02-21T14:47:13.000Z</time>
      </trkpt>
      <trkpt lat="45.30441" lon="4.43676">
        <ele>1135</ele>
        <time>2016-02-21T14:47:50.000Z</time>
      </trkpt>
      <trkpt lat="45.3044" lon="4.43676">
        <ele>1135</ele>
        <time>2016-02-21T14:47:51.000Z</time>
      </trkpt>
      <trkpt lat="45.30417" lon="4.43681">
        <ele>1137</ele>
        <time>2016-02-21T14:48:11.000Z</time>
      </trkpt>
      <trkpt lat="45.30416" lon="4.4368">
        <ele>1136</ele>
        <time>2016-02-21T14:48:12.000Z</time>
      </trkpt>
      <trkpt lat="45.30392" lon="4.43679">
        <ele>1137</ele>
        <time>2016-02-21T14:48:35.000Z</time>
      </trkpt>
      <trkpt lat="45.30391" lon="4.43679">
        <ele>1137</ele>
        <time>2016-02-21T14:48:36.000Z</time>
      </trkpt>
      <trkpt lat="45.30368" lon="4.43679">
        <ele>1139</ele>
        <time>2016-02-21T14:48:58.000Z</time>
      </trkpt>
      <trkpt lat="45.30367" lon="4.43679">
        <ele>1139</ele>
        <time>2016-02-21T14:48:59.000Z</time>
      </trkpt>
      <trkpt lat="45.30344" lon="4.43675">
        <ele>1142</ele>
        <time>2016-02-21T14:49:21.000Z</time>
      </trkpt>
      <trkpt lat="45.30342" lon="4.43675">
        <ele>1142</ele>
        <time>2016-02-21T14:49:22.000Z</time>
      </trkpt>
      <trkpt lat="45.3032" lon="4.43678">
        <ele>1144</ele>
        <time>2016-02-21T14:49:42.000Z</time>
      </trkpt>
      <trkpt lat="45.30319" lon="4.43677">
        <ele>1144</ele>
        <time>2016-02-21T14:49:43.000Z</time>
      </trkpt>
      <trkpt lat="45.30305" lon="4.43703">
        <ele>1140</ele>
        <time>2016-02-21T14:50:56.000Z</time>
      </trkpt>
      <trkpt lat="45.30305" lon="4.43704">
        <ele>1140</ele>
        <time>2016-02-21T14:50:57.000Z</time>
      </trkpt>
      <trkpt lat="45.30312" lon="4.43735">
        <ele>1145</ele>
        <time>2016-02-21T14:51:21.000Z</time>
      </trkpt>
      <trkpt lat="45.30312" lon="4.43736">
        <ele>1146</ele>
        <time>2016-02-21T14:51:22.000Z</time>
      </trkpt>
      <trkpt lat="45.30317" lon="4.43768">
        <ele>1152</ele>
        <time>2016-02-21T14:51:48.000Z</time>
      </trkpt>
      <trkpt lat="45.30317" lon="4.4377">
        <ele>1152</ele>
        <time>2016-02-21T14:51:49.000Z</time>
      </trkpt>
      <trkpt lat="45.30322" lon="4.43802">
        <ele>1153</ele>
        <time>2016-02-21T14:52:13.000Z</time>
      </trkpt>
      <trkpt lat="45.30322" lon="4.43803">
        <ele>1153</ele>
        <time>2016-02-21T14:52:14.000Z</time>
      </trkpt>
      <trkpt lat="45.30323" lon="4.43836">
        <ele>1162</ele>
        <time>2016-02-21T14:52:42.000Z</time>
      </trkpt>
      <trkpt lat="45.30323" lon="4.43837">
        <ele>1162</ele>
        <time>2016-02-21T14:52:43.000Z</time>
      </trkpt>
      <trkpt lat="45.30304" lon="4.43857">
        <ele>1166</ele>
        <time>2016-02-21T14:53:15.000Z</time>
      </trkpt>
      <trkpt lat="45.30304" lon="4.43857">
        <ele>1166</ele>
        <time>2016-02-21T14:53:16.000Z</time>
      </trkpt>
      <trkpt lat="45.30287" lon="4.43879">
        <ele>1167</ele>
        <time>2016-02-21T14:55:31.000Z</time>
      </trkpt>
      <trkpt lat="45.30287" lon="4.43879">
        <ele>1167</ele>
        <time>2016-02-21T14:55:32.000Z</time>
      </trkpt>
      <trkpt lat="45.3029" lon="4.43912">
        <ele>1169</ele>
        <time>2016-02-21T14:56:03.000Z</time>
      </trkpt>
      <trkpt lat="45.3029" lon="4.43913">
        <ele>1169</ele>
        <time>2016-02-21T14:56:04.000Z</time>
      </trkpt>
      <trkpt lat="45.3027" lon="4.43929">
        <ele>1177</ele>
        <time>2016-02-21T14:56:34.000Z</time>
      </trkpt>
      <trkpt lat="45.3027" lon="4.4393">
        <ele>1177</ele>
        <time>2016-02-21T14:56:35.000Z</time>
      </trkpt>
      <trkpt lat="45.30273" lon="4.43963">
        <ele>1181</ele>
        <time>2016-02-21T14:57:02.000Z</time>
      </trkpt>
      <trkpt lat="45.30274" lon="4.43964">
        <ele>1181</ele>
        <time>2016-02-21T14:57:03.000Z</time>
      </trkpt>
      <trkpt lat="45.30266" lon="4.43994">
        <ele>1185</ele>
        <time>2016-02-21T14:57:30.000Z</time>
      </trkpt>
      <trkpt lat="45.30265" lon="4.43995">
        <ele>1185</ele>
        <time>2016-02-21T14:57:31.000Z</time>
      </trkpt>
      <trkpt lat="45.30245" lon="4.44009">
        <ele>1189</ele>
        <time>2016-02-21T14:58:06.000Z</time>
      </trkpt>
      <trkpt lat="45.30244" lon="4.44009">
        <ele>1189</ele>
        <time>2016-02-21T14:58:07.000Z</time>
      </trkpt>
      <trkpt lat="45.30232" lon="4.44037">
        <ele>1193</ele>
        <time>2016-02-21T14:59:10.000Z</time>
      </trkpt>
      <trkpt lat="45.30231" lon="4.44039">
        <ele>1193</ele>
        <time>2016-02-21T14:59:11.000Z</time>
      </trkpt>
      <trkpt lat="45.30229" lon="4.4407">
        <ele>1196</ele>
        <time>2016-02-21T14:59:33.000Z</time>
      </trkpt>
      <trkpt lat="45.30228" lon="4.44072">
        <ele>1197</ele>
        <time>2016-02-21T14:59:34.000Z</time>
      </trkpt>
      <trkpt lat="45.3022" lon="4.44102">
        <ele>1197</ele>
        <time>2016-02-21T14:59:58.000Z</time>
      </trkpt>
      <trkpt lat="45.3022" lon="4.44103">
        <ele>1197</ele>
        <time>2016-02-21T14:59:59.000Z</time>
      </trkpt>
      <trkpt lat="45.30226" lon="4.44134">
        <ele>1199</ele>
        <time>2016-02-21T15:00:21.000Z</time>
      </trkpt>
      <trkpt lat="45.30226" lon="4.44136">
        <ele>1199</ele>
        <time>2016-02-21T15:00:22.000Z</time>
      </trkpt>
      <trkpt lat="45.30227" lon="4.44169">
        <ele>1203</ele>
        <time>2016-02-21T15:00:44.000Z</time>
      </trkpt>
      <trkpt lat="45.30227" lon="4.4417">
        <ele>1203</ele>
        <time>2016-02-21T15:00:45.000Z</time>
      </trkpt>
      <trkpt lat="45.30223" lon="4.44202">
        <ele>1205</ele>
        <time>2016-02-21T15:01:13.000Z</time>
      </trkpt>
      <trkpt lat="45.30223" lon="4.44203">
        <ele>1206</ele>
        <time>2016-02-21T15:01:14.000Z</time>
      </trkpt>
      <trkpt lat="45.30233" lon="4.44232">
        <ele>1209</ele>
        <time>2016-02-21T15:01:36.000Z</time>
      </trkpt>
      <trkpt lat="45.30233" lon="4.44233">
        <ele>1210</ele>
        <time>2016-02-21T15:01:37.000Z</time>
      </trkpt>
      <trkpt lat="45.30247" lon="4.44259">
        <ele>1210</ele>
        <time>2016-02-21T15:02:00.000Z</time>
      </trkpt>
      <trkpt lat="45.30247" lon="4.4426">
        <ele>1210</ele>
        <time>2016-02-21T15:02:01.000Z</time>
      </trkpt>
      <trkpt lat="45.30266" lon="4.44281">
        <ele>1209</ele>
        <time>2016-02-21T15:02:22.000Z</time>
      </trkpt>
      <trkpt lat="45.30267" lon="4.44282">
        <ele>1209</ele>
        <time>2016-02-21T15:02:23.000Z</time>
      </trkpt>
      <trkpt lat="45.30285" lon="4.44302">
        <ele>1212</ele>
        <time>2016-02-21T15:02:43.000Z</time>
      </trkpt>
      <trkpt lat="45.30286" lon="4.44303">
        <ele>1212</ele>
        <time>2016-02-21T15:02:44.000Z</time>
      </trkpt>
      <trkpt lat="45.30304" lon="4.44323">
        <ele>1212</ele>
        <time>2016-02-21T15:03:03.000Z</time>
      </trkpt>
      <trkpt lat="45.30305" lon="4.44323">
        <ele>1212</ele>
        <time>2016-02-21T15:03:04.000Z</time>
      </trkpt>
      <trkpt lat="45.30326" lon="4.44338">
        <ele>1214</ele>
        <time>2016-02-21T15:03:23.000Z</time>
      </trkpt>
      <trkpt lat="45.30327" lon="4.44339">
        <ele>1214</ele>
        <time>2016-02-21T15:03:24.000Z</time>
      </trkpt>
      <trkpt lat="45.30347" lon="4.44356">
        <ele>1215</ele>
        <time>2016-02-21T15:03:44.000Z</time>
      </trkpt>
      <trkpt lat="45.30348" lon="4.44357">
        <ele>1215</ele>
        <time>2016-02-21T15:03:45.000Z</time>
      </trkpt>
      <trkpt lat="45.30368" lon="4.44371">
        <ele>1216</ele>
        <time>2016-02-21T15:04:05.000Z</time>
      </trkpt>
      <trkpt lat="45.3037" lon="4.44372">
        <ele>1216</ele>
        <time>2016-02-21T15:04:06.000Z</time>
      </trkpt>
      <trkpt lat="45.30391" lon="4.44382">
        <ele>1215</ele>
        <time>2016-02-21T15:04:29.000Z</time>
      </trkpt>
      <trkpt lat="45.30392" lon="4.44382">
        <ele>1215</ele>
        <time>2016-02-21T15:04:30.000Z</time>
      </trkpt>
      <trkpt lat="45.30413" lon="4.44396">
        <ele>1219</ele>
        <time>2016-02-21T15:04:52.000Z</time>
      </trkpt>
      <trkpt lat="45.30413" lon="4.44396">
        <ele>1219</ele>
        <time>2016-02-21T15:04:53.000Z</time>
      </trkpt>
      <trkpt lat="45.30434" lon="4.44414">
        <ele>1225</ele>
        <time>2016-02-21T15:05:15.000Z</time>
      </trkpt>
      <trkpt lat="45.30434" lon="4.44414">
        <ele>1225</ele>
        <time>2016-02-21T15:05:16.000Z</time>
      </trkpt>
      <trkpt lat="45.30456" lon="4.44425">
        <ele>1229</ele>
        <time>2016-02-21T15:06:03.000Z</time>
      </trkpt>
      <trkpt lat="45.30457" lon="4.44426">
        <ele>1230</ele>
        <time>2016-02-21T15:06:04.000Z</time>
      </trkpt>
      <trkpt lat="45.30477" lon="4.44442">
        <ele>1231</ele>
        <time>2016-02-21T15:06:26.000Z</time>
      </trkpt>
      <trkpt lat="45.30478" lon="4.44443">
        <ele>1231</ele>
        <time>2016-02-21T15:06:27.000Z</time>
      </trkpt>
      <trkpt lat="45.3049" lon="4.4447">
        <ele>1235</ele>
        <time>2016-02-21T15:07:22.000Z</time>
      </trkpt>
      <trkpt lat="45.30489" lon="4.44471">
        <ele>1236</ele>
        <time>2016-02-21T15:07:23.000Z</time>
      </trkpt>
      <trkpt lat="45.30481" lon="4.44501">
        <ele>1236</ele>
        <time>2016-02-21T15:07:47.000Z</time>
      </trkpt>
      <trkpt lat="45.30481" lon="4.44502">
        <ele>1236</ele>
        <time>2016-02-21T15:07:48.000Z</time>
      </trkpt>
      <trkpt lat="45.30477" lon="4.44535">
        <ele>1236</ele>
        <time>2016-02-21T15:08:14.000Z</time>
      </trkpt>
      <trkpt lat="45.30477" lon="4.44536">
        <ele>1236</ele>
        <time>2016-02-21T15:08:15.000Z</time>
      </trkpt>
      <trkpt lat="45.30476" lon="4.44568">
        <ele>1238</ele>
        <time>2016-02-21T15:08:40.000Z</time>
      </trkpt>
      <trkpt lat="45.30476" lon="4.44569">
        <ele>1238</ele>
        <time>2016-02-21T15:08:41.000Z</time>
      </trkpt>
      <trkpt lat="45.30464" lon="4.44597">
        <ele>1240</ele>
        <time>2016-02-21T15:09:10.000Z</time>
      </trkpt>
      <trkpt lat="45.30464" lon="4.44599">
        <ele>1240</ele>
        <time>2016-02-21T15:09:11.000Z</time>
      </trkpt>
      <trkpt lat="45.30451" lon="4.44626">
        <ele>1238</ele>
        <time>2016-02-21T15:10:43.000Z</time>
      </trkpt>
      <trkpt lat="45.30451" lon="4.44626">
        <ele>1238</ele>
        <time>2016-02-21T15:10:44.000Z</time>
      </trkpt>
      <trkpt lat="45.30467" lon="4.44649">
        <ele>1236</ele>
        <time>2016-02-21T15:18:14.000Z</time>
      </trkpt>
      <trkpt lat="45.30467" lon="4.4465">
        <ele>1236</ele>
        <time>2016-02-21T15:18:15.000Z</time>
      </trkpt>
      <trkpt lat="45.30475" lon="4.44681">
        <ele>1234</ele>
        <time>2016-02-21T15:19:02.000Z</time>
      </trkpt>
      <trkpt lat="45.30475" lon="4.44681">
        <ele>1234</ele>
        <time>2016-02-21T15:19:03.000Z</time>
      </trkpt>
      <trkpt lat="45.30495" lon="4.44664">
        <ele>1236</ele>
        <time>2016-02-21T15:20:05.000Z</time>
      </trkpt>
      <trkpt lat="45.30495" lon="4.44664">
        <ele>1236</ele>
        <time>2016-02-21T15:20:06.000Z</time>
      </trkpt>
      <trkpt lat="45.30515" lon="4.44649">
        <ele>1241</ele>
        <time>2016-02-21T15:20:41.000Z</time>
      </trkpt>
      <trkpt lat="45.30516" lon="4.44648">
        <ele>1241</ele>
        <time>2016-02-21T15:20:42.000Z</time>
      </trkpt>
      <trkpt lat="45.30532" lon="4.44625">
        <ele>1242</ele>
        <time>2016-02-21T15:21:17.000Z</time>
      </trkpt>
      <trkpt lat="45.30532" lon="4.44623">
        <ele>1241</ele>
        <time>2016-02-21T15:21:18.000Z</time>
      </trkpt>
      <trkpt lat="45.30552" lon="4.44607">
        <ele>1242</ele>
        <time>2016-02-21T15:21:40.000Z</time>
      </trkpt>
      <trkpt lat="45.30553" lon="4.44606">
        <ele>1242</ele>
        <time>2016-02-21T15:21:41.000Z</time>
      </trkpt>
      <trkpt lat="45.30561" lon="4.44577">
        <ele>1241</ele>
        <time>2016-02-21T15:22:01.000Z</time>
      </trkpt>
      <trkpt lat="45.30562" lon="4.44575">
        <ele>1241</ele>
        <time>2016-02-21T15:22:02.000Z</time>
      </trkpt>
      <trkpt lat="45.30576" lon="4.4455">
        <ele>1241</ele>
        <time>2016-02-21T15:22:24.000Z</time>
      </trkpt>
      <trkpt lat="45.30576" lon="4.44548">
        <ele>1241</ele>
        <time>2016-02-21T15:22:25.000Z</time>
      </trkpt>
      <trkpt lat="45.30596" lon="4.44532">
        <ele>1240</ele>
        <time>2016-02-21T15:22:51.000Z</time>
      </trkpt>
      <trkpt lat="45.30597" lon="4.44531">
        <ele>1240</ele>
        <time>2016-02-21T15:22:52.000Z</time>
      </trkpt>
      <trkpt lat="45.30619" lon="4.44527">
        <ele>1240</ele>
        <time>2016-02-21T15:24:41.000Z</time>
      </trkpt>
      <trkpt lat="45.3062" lon="4.44527">
        <ele>1240</ele>
        <time>2016-02-21T15:24:42.000Z</time>
      </trkpt>
      <trkpt lat="45.30635" lon="4.44501">
        <ele>1236</ele>
        <time>2016-02-21T15:25:03.000Z</time>
      </trkpt>
      <trkpt lat="45.30635" lon="4.445">
        <ele>1236</ele>
        <time>2016-02-21T15:25:04.000Z</time>
      </trkpt>
      <trkpt lat="45.30653" lon="4.4448">
        <ele>1237</ele>
        <time>2016-02-21T15:25:26.000Z</time>
      </trkpt>
      <trkpt lat="45.30654" lon="4.4448">
        <ele>1237</ele>
        <time>2016-02-21T15:25:27.000Z</time>
      </trkpt>
      <trkpt lat="45.30677" lon="4.44482">
        <ele>1239</ele>
        <time>2016-02-21T15:25:46.000Z</time>
      </trkpt>
      <trkpt lat="45.30679" lon="4.44482">
        <ele>1239</ele>
        <time>2016-02-21T15:25:47.000Z</time>
      </trkpt>
      <trkpt lat="45.30701" lon="4.44483">
        <ele>1237</ele>
        <time>2016-02-21T15:26:06.000Z</time>
      </trkpt>
      <trkpt lat="45.30702" lon="4.44483">
        <ele>1237</ele>
        <time>2016-02-21T15:26:07.000Z</time>
      </trkpt>
      <trkpt lat="45.30725" lon="4.44473">
        <ele>1236</ele>
        <time>2016-02-21T15:26:27.000Z</time>
      </trkpt>
      <trkpt lat="45.30725" lon="4.44472">
        <ele>1236</ele>
        <time>2016-02-21T15:26:28.000Z</time>
      </trkpt>
      <trkpt lat="45.30745" lon="4.44455">
        <ele>1236</ele>
        <time>2016-02-21T15:26:48.000Z</time>
      </trkpt>
      <trkpt lat="45.30746" lon="4.44454">
        <ele>1236</ele>
        <time>2016-02-21T15:26:49.000Z</time>
      </trkpt>
      <trkpt lat="45.30762" lon="4.4443">
        <ele>1238</ele>
        <time>2016-02-21T15:27:09.000Z</time>
      </trkpt>
      <trkpt lat="45.30762" lon="4.44429">
        <ele>1238</ele>
        <time>2016-02-21T15:27:10.000Z</time>
      </trkpt>
      <trkpt lat="45.3077" lon="4.44398">
        <ele>1238</ele>
        <time>2016-02-21T15:27:31.000Z</time>
      </trkpt>
      <trkpt lat="45.30771" lon="4.44397">
        <ele>1238</ele>
        <time>2016-02-21T15:27:32.000Z</time>
      </trkpt>
      <trkpt lat="45.3078" lon="4.44368">
        <ele>1239</ele>
        <time>2016-02-21T15:28:30.000Z</time>
      </trkpt>
      <trkpt lat="45.3078" lon="4.44367">
        <ele>1239</ele>
        <time>2016-02-21T15:28:31.000Z</time>
      </trkpt>
      <trkpt lat="45.30787" lon="4.44335">
        <ele>1236</ele>
        <time>2016-02-21T15:28:53.000Z</time>
      </trkpt>
      <trkpt lat="45.30788" lon="4.44334">
        <ele>1236</ele>
        <time>2016-02-21T15:28:54.000Z</time>
      </trkpt>
      <trkpt lat="45.30792" lon="4.44303">
        <ele>1232</ele>
        <time>2016-02-21T15:29:13.000Z</time>
      </trkpt>
      <trkpt lat="45.30792" lon="4.44301">
        <ele>1232</ele>
        <time>2016-02-21T15:29:14.000Z</time>
      </trkpt>
      <trkpt lat="45.30796" lon="4.44269">
        <ele>1228</ele>
        <time>2016-02-21T15:29:34.000Z</time>
      </trkpt>
      <trkpt lat="45.30796" lon="4.44268">
        <ele>1228</ele>
        <time>2016-02-21T15:29:35.000Z</time>
      </trkpt>
      <trkpt lat="45.30802" lon="4.44237">
        <ele>1225</ele>
        <time>2016-02-21T15:29:58.000Z</time>
      </trkpt>
      <trkpt lat="45.30802" lon="4.44235">
        <ele>1225</ele>
        <time>2016-02-21T15:29:59.000Z</time>
      </trkpt>
      <trkpt lat="45.30808" lon="4.44204">
        <ele>1223</ele>
        <time>2016-02-21T15:30:24.000Z</time>
      </trkpt>
      <trkpt lat="45.30808" lon="4.44202">
        <ele>1223</ele>
        <time>2016-02-21T15:30:25.000Z</time>
      </trkpt>
      <trkpt lat="45.30807" lon="4.4417">
        <ele>1218</ele>
        <time>2016-02-21T15:30:47.000Z</time>
      </trkpt>
      <trkpt lat="45.30807" lon="4.44169">
        <ele>1218</ele>
        <time>2016-02-21T15:30:48.000Z</time>
      </trkpt>
      <trkpt lat="45.30809" lon="4.44136">
        <ele>1219</ele>
        <time>2016-02-21T15:31:13.000Z</time>
      </trkpt>
      <trkpt lat="45.30809" lon="4.44135">
        <ele>1218</ele>
        <time>2016-02-21T15:31:14.000Z</time>
      </trkpt>
      <trkpt lat="45.30808" lon="4.44103">
        <ele>1217</ele>
        <time>2016-02-21T15:31:37.000Z</time>
      </trkpt>
      <trkpt lat="45.30808" lon="4.44101">
        <ele>1217</ele>
        <time>2016-02-21T15:31:38.000Z</time>
      </trkpt>
      <trkpt lat="45.30807" lon="4.44069">
        <ele>1217</ele>
        <time>2016-02-21T15:31:57.000Z</time>
      </trkpt>
      <trkpt lat="45.30808" lon="4.44068">
        <ele>1217</ele>
        <time>2016-02-21T15:31:58.000Z</time>
      </trkpt>
      <trkpt lat="45.30807" lon="4.44035">
        <ele>1213</ele>
        <time>2016-02-21T15:32:18.000Z</time>
      </trkpt>
      <trkpt lat="45.30806" lon="4.44034">
        <ele>1213</ele>
        <time>2016-02-21T15:32:19.000Z</time>
      </trkpt>
      <trkpt lat="45.30795" lon="4.44006">
        <ele>1216</ele>
        <time>2016-02-21T15:32:42.000Z</time>
      </trkpt>
      <trkpt lat="45.30794" lon="4.44005">
        <ele>1216</ele>
        <time>2016-02-21T15:32:43.000Z</time>
      </trkpt>
      <trkpt lat="45.30806" lon="4.44033">
        <ele>1220</ele>
        <time>2016-02-21T15:36:16.000Z</time>
      </trkpt>
      <trkpt lat="45.30807" lon="4.44034">
        <ele>1220</ele>
        <time>2016-02-21T15:36:17.000Z</time>
      </trkpt>
      <trkpt lat="45.30829" lon="4.44048">
        <ele>1220</ele>
        <time>2016-02-21T15:36:38.000Z</time>
      </trkpt>
      <trkpt lat="45.3083" lon="4.44048">
        <ele>1220</ele>
        <time>2016-02-21T15:36:39.000Z</time>
      </trkpt>
      <trkpt lat="45.30853" lon="4.4405">
        <ele>1219</ele>
        <time>2016-02-21T15:37:02.000Z</time>
      </trkpt>
      <trkpt lat="45.30854" lon="4.4405">
        <ele>1219</ele>
        <time>2016-02-21T15:37:03.000Z</time>
      </trkpt>
      <trkpt lat="45.30872" lon="4.44069">
        <ele>1218</ele>
        <time>2016-02-21T15:37:27.000Z</time>
      </trkpt>
      <trkpt lat="45.30873" lon="4.44069">
        <ele>1218</ele>
        <time>2016-02-21T15:37:28.000Z</time>
      </trkpt>
      <trkpt lat="45.30894" lon="4.44086">
        <ele>1217</ele>
        <time>2016-02-21T15:37:50.000Z</time>
      </trkpt>
      <trkpt lat="45.30895" lon="4.44086">
        <ele>1217</ele>
        <time>2016-02-21T15:37:51.000Z</time>
      </trkpt>
      <trkpt lat="45.30916" lon="4.441">
        <ele>1217</ele>
        <time>2016-02-21T15:38:10.000Z</time>
      </trkpt>
      <trkpt lat="45.30917" lon="4.44101">
        <ele>1217</ele>
        <time>2016-02-21T15:38:11.000Z</time>
      </trkpt>
      <trkpt lat="45.30937" lon="4.44115">
        <ele>1217</ele>
        <time>2016-02-21T15:38:30.000Z</time>
      </trkpt>
      <trkpt lat="45.30938" lon="4.44116">
        <ele>1217</ele>
        <time>2016-02-21T15:38:31.000Z</time>
      </trkpt>
      <trkpt lat="45.3096" lon="4.44129">
        <ele>1214</ele>
        <time>2016-02-21T15:38:51.000Z</time>
      </trkpt>
      <trkpt lat="45.30961" lon="4.4413">
        <ele>1214</ele>
        <time>2016-02-21T15:38:52.000Z</time>
      </trkpt>
      <trkpt lat="45.30983" lon="4.44142">
        <ele>1214</ele>
        <time>2016-02-21T15:39:12.000Z</time>
      </trkpt>
      <trkpt lat="45.30984" lon="4.44142">
        <ele>1214</ele>
        <time>2016-02-21T15:39:13.000Z</time>
      </trkpt>
      <trkpt lat="45.31005" lon="4.44156">
        <ele>1213</ele>
        <time>2016-02-21T15:39:41.000Z</time>
      </trkpt>
      <trkpt lat="45.31005" lon="4.44156">
        <ele>1214</ele>
        <time>2016-02-21T15:39:42.000Z</time>
      </trkpt>
      <trkpt lat="45.31022" lon="4.44178">
        <ele>1208</ele>
        <time>2016-02-21T15:40:16.000Z</time>
      </trkpt>
      <trkpt lat="45.31022" lon="4.44179">
        <ele>1208</ele>
        <time>2016-02-21T15:40:17.000Z</time>
      </trkpt>
      <trkpt lat="45.31044" lon="4.4419">
        <ele>1206</ele>
        <time>2016-02-21T15:40:41.000Z</time>
      </trkpt>
      <trkpt lat="45.31045" lon="4.4419">
        <ele>1206</ele>
        <time>2016-02-21T15:40:42.000Z</time>
      </trkpt>
      <trkpt lat="45.31065" lon="4.44207">
        <ele>1208</ele>
        <time>2016-02-21T15:41:03.000Z</time>
      </trkpt>
      <trkpt lat="45.31066" lon="4.44208">
        <ele>1208</ele>
        <time>2016-02-21T15:41:04.000Z</time>
      </trkpt>
      <trkpt lat="45.31086" lon="4.44224">
        <ele>1210</ele>
        <time>2016-02-21T15:41:24.000Z</time>
      </trkpt>
      <trkpt lat="45.31087" lon="4.44225">
        <ele>1210</ele>
        <time>2016-02-21T15:41:25.000Z</time>
      </trkpt>
      <trkpt lat="45.31109" lon="4.44236">
        <ele>1211</ele>
        <time>2016-02-21T15:41:49.000Z</time>
      </trkpt>
      <trkpt lat="45.3111" lon="4.44237">
        <ele>1211</ele>
        <time>2016-02-21T15:41:50.000Z</time>
      </trkpt>
      <trkpt lat="45.31122" lon="4.44264">
        <ele>1212</ele>
        <time>2016-02-21T15:42:14.000Z</time>
      </trkpt>
      <trkpt lat="45.31123" lon="4.44266">
        <ele>1212</ele>
        <time>2016-02-21T15:42:15.000Z</time>
      </trkpt>
      <trkpt lat="45.31137" lon="4.44291">
        <ele>1208</ele>
        <time>2016-02-21T15:42:39.000Z</time>
      </trkpt>
      <trkpt lat="45.31137" lon="4.44292">
        <ele>1208</ele>
        <time>2016-02-21T15:42:40.000Z</time>
      </trkpt>
      <trkpt lat="45.31147" lon="4.4432">
        <ele>1208</ele>
        <time>2016-02-21T15:43:03.000Z</time>
      </trkpt>
      <trkpt lat="45.31148" lon="4.44322">
        <ele>1208</ele>
        <time>2016-02-21T15:43:04.000Z</time>
      </trkpt>
      <trkpt lat="45.31156" lon="4.44352">
        <ele>1206</ele>
        <time>2016-02-21T15:44:07.000Z</time>
      </trkpt>
      <trkpt lat="45.31156" lon="4.44352">
        <ele>1206</ele>
        <time>2016-02-21T15:44:08.000Z</time>
      </trkpt>
      <trkpt lat="45.31166" lon="4.44382">
        <ele>1205</ele>
        <time>2016-02-21T15:46:23.000Z</time>
      </trkpt>
      <trkpt lat="45.31167" lon="4.44383">
        <ele>1205</ele>
        <time>2016-02-21T15:46:24.000Z</time>
      </trkpt>
      <trkpt lat="45.31179" lon="4.44411">
        <ele>1204</ele>
        <time>2016-02-21T15:46:47.000Z</time>
      </trkpt>
      <trkpt lat="45.3118" lon="4.44411">
        <ele>1204</ele>
        <time>2016-02-21T15:46:48.000Z</time>
      </trkpt>
      <trkpt lat="45.31199" lon="4.44429">
        <ele>1201</ele>
        <time>2016-02-21T15:47:21.000Z</time>
      </trkpt>
      <trkpt lat="45.312" lon="4.4443">
        <ele>1201</ele>
        <time>2016-02-21T15:47:22.000Z</time>
      </trkpt>
      <trkpt lat="45.31216" lon="4.44452">
        <ele>1198</ele>
        <time>2016-02-21T15:47:57.000Z</time>
      </trkpt>
      <trkpt lat="45.31217" lon="4.44453">
        <ele>1198</ele>
        <time>2016-02-21T15:47:58.000Z</time>
      </trkpt>
      <trkpt lat="45.31234" lon="4.44476">
        <ele>1199</ele>
        <time>2016-02-21T15:48:35.000Z</time>
      </trkpt>
      <trkpt lat="45.31234" lon="4.44476">
        <ele>1199</ele>
        <time>2016-02-21T15:48:36.000Z</time>
      </trkpt>
      <trkpt lat="45.31255" lon="4.4449">
        <ele>1196</ele>
        <time>2016-02-21T15:49:19.000Z</time>
      </trkpt>
      <trkpt lat="45.31255" lon="4.44491">
        <ele>1196</ele>
        <time>2016-02-21T15:49:20.000Z</time>
      </trkpt>
      <trkpt lat="45.31276" lon="4.44506">
        <ele>1193</ele>
        <time>2016-02-21T15:50:19.000Z</time>
      </trkpt>
      <trkpt lat="45.31277" lon="4.44507">
        <ele>1193</ele>
        <time>2016-02-21T15:50:20.000Z</time>
      </trkpt>
      <trkpt lat="45.31296" lon="4.44523">
        <ele>1194</ele>
        <time>2016-02-21T15:50:45.000Z</time>
      </trkpt>
      <trkpt lat="45.31297" lon="4.44523">
        <ele>1193</ele>
        <time>2016-02-21T15:50:46.000Z</time>
      </trkpt>
      <trkpt lat="45.31318" lon="4.44508">
        <ele>1188</ele>
        <time>2016-02-21T15:51:19.000Z</time>
      </trkpt>
      <trkpt lat="45.31319" lon="4.44508">
        <ele>1188</ele>
        <time>2016-02-21T15:51:20.000Z</time>
      </trkpt>
      <trkpt lat="45.31341" lon="4.44499">
        <ele>1186</ele>
        <time>2016-02-21T15:51:43.000Z</time>
      </trkpt>
      <trkpt lat="45.31342" lon="4.44499">
        <ele>1186</ele>
        <time>2016-02-21T15:51:44.000Z</time>
      </trkpt>
      <trkpt lat="45.31364" lon="4.44492">
        <ele>1182</ele>
        <time>2016-02-21T15:52:06.000Z</time>
      </trkpt>
      <trkpt lat="45.31365" lon="4.44491">
        <ele>1182</ele>
        <time>2016-02-21T15:52:07.000Z</time>
      </trkpt>
      <trkpt lat="45.31388" lon="4.44488">
        <ele>1181</ele>
        <time>2016-02-21T15:52:27.000Z</time>
      </trkpt>
      <trkpt lat="45.3139" lon="4.44488">
        <ele>1181</ele>
        <time>2016-02-21T15:52:28.000Z</time>
      </trkpt>
      <trkpt lat="45.31413" lon="4.44486">
        <ele>1180</ele>
        <time>2016-02-21T15:52:47.000Z</time>
      </trkpt>
      <trkpt lat="45.31414" lon="4.44486">
        <ele>1180</ele>
        <time>2016-02-21T15:52:48.000Z</time>
      </trkpt>
      <trkpt lat="45.31437" lon="4.44483">
        <ele>1179</ele>
        <time>2016-02-21T15:53:10.000Z</time>
      </trkpt>
      <trkpt lat="45.31438" lon="4.44482">
        <ele>1179</ele>
        <time>2016-02-21T15:53:11.000Z</time>
      </trkpt>
      <trkpt lat="45.31461" lon="4.44482">
        <ele>1177</ele>
        <time>2016-02-21T15:53:34.000Z</time>
      </trkpt>
      <trkpt lat="45.31462" lon="4.44482">
        <ele>1177</ele>
        <time>2016-02-21T15:53:35.000Z</time>
      </trkpt>
      <trkpt lat="45.31485" lon="4.44483">
        <ele>1180</ele>
        <time>2016-02-21T15:54:02.000Z</time>
      </trkpt>
      <trkpt lat="45.31486" lon="4.44483">
        <ele>1180</ele>
        <time>2016-02-21T15:54:03.000Z</time>
      </trkpt>
      <trkpt lat="45.31509" lon="4.44484">
        <ele>1182</ele>
        <time>2016-02-21T15:54:27.000Z</time>
      </trkpt>
      <trkpt lat="45.31509" lon="4.44484">
        <ele>1182</ele>
        <time>2016-02-21T15:54:28.000Z</time>
      </trkpt>
      <trkpt lat="45.31533" lon="4.44487">
        <ele>1176</ele>
        <time>2016-02-21T15:54:51.000Z</time>
      </trkpt>
      <trkpt lat="45.31533" lon="4.44488">
        <ele>1176</ele>
        <time>2016-02-21T15:54:52.000Z</time>
      </trkpt>
      <trkpt lat="45.31555" lon="4.44497">
        <ele>1171</ele>
        <time>2016-02-21T15:55:18.000Z</time>
      </trkpt>
      <trkpt lat="45.31556" lon="4.44498">
        <ele>1171</ele>
        <time>2016-02-21T15:55:19.000Z</time>
      </trkpt>
      <trkpt lat="45.31574" lon="4.44519">
        <ele>1170</ele>
        <time>2016-02-21T15:55:54.000Z</time>
      </trkpt>
      <trkpt lat="45.31575" lon="4.4452">
        <ele>1171</ele>
        <time>2016-02-21T15:55:55.000Z</time>
      </trkpt>
      <trkpt lat="45.31596" lon="4.44534">
        <ele>1168</ele>
        <time>2016-02-21T15:56:20.000Z</time>
      </trkpt>
      <trkpt lat="45.31597" lon="4.44534">
        <ele>1168</ele>
        <time>2016-02-21T15:56:21.000Z</time>
      </trkpt>
      <trkpt lat="45.3162" lon="4.44543">
        <ele>1164</ele>
        <time>2016-02-21T15:56:45.000Z</time>
      </trkpt>
      <trkpt lat="45.31621" lon="4.44543">
        <ele>1164</ele>
        <time>2016-02-21T15:56:46.000Z</time>
      </trkpt>
      <trkpt lat="45.31637" lon="4.44566">
        <ele>1164</ele>
        <time>2016-02-21T15:57:13.000Z</time>
      </trkpt>
      <trkpt lat="45.31637" lon="4.44567">
        <ele>1163</ele>
        <time>2016-02-21T15:57:14.000Z</time>
      </trkpt>
      <trkpt lat="45.31647" lon="4.44596">
        <ele>1165</ele>
        <time>2016-02-21T15:57:38.000Z</time>
      </trkpt>
      <trkpt lat="45.31648" lon="4.44597">
        <ele>1166</ele>
        <time>2016-02-21T15:57:39.000Z</time>
      </trkpt>
      <trkpt lat="45.31664" lon="4.4462">
        <ele>1161</ele>
        <time>2016-02-21T15:58:43.000Z</time>
      </trkpt>
      <trkpt lat="45.31664" lon="4.44621">
        <ele>1161</ele>
        <time>2016-02-21T15:58:44.000Z</time>
      </trkpt>
      <trkpt lat="45.31679" lon="4.44646">
        <ele>1160</ele>
        <time>2016-02-21T15:59:11.000Z</time>
      </trkpt>
      <trkpt lat="45.31679" lon="4.44647">
        <ele>1160</ele>
        <time>2016-02-21T15:59:12.000Z</time>
      </trkpt>
      <trkpt lat="45.31689" lon="4.44676">
        <ele>1161</ele>
        <time>2016-02-21T15:59:38.000Z</time>
      </trkpt>
      <trkpt lat="45.31689" lon="4.44678">
        <ele>1161</ele>
        <time>2016-02-21T15:59:39.000Z</time>
      </trkpt>
      <trkpt lat="45.31697" lon="4.44708">
        <ele>1165</ele>
        <time>2016-02-21T16:00:10.000Z</time>
      </trkpt>
      <trkpt lat="45.31697" lon="4.44708">
        <ele>1166</ele>
        <time>2016-02-21T16:00:11.000Z</time>
      </trkpt>
      <trkpt lat="45.31719" lon="4.44719">
        <ele>1161</ele>
        <time>2016-02-21T16:00:47.000Z</time>
      </trkpt>
      <trkpt lat="45.3172" lon="4.4472">
        <ele>1161</ele>
        <time>2016-02-21T16:00:48.000Z</time>
      </trkpt>
      <trkpt lat="45.31742" lon="4.44729">
        <ele>1156</ele>
        <time>2016-02-21T16:01:17.000Z</time>
      </trkpt>
      <trkpt lat="45.31742" lon="4.44729">
        <ele>1156</ele>
        <time>2016-02-21T16:01:18.000Z</time>
      </trkpt>
      <trkpt lat="45.31766" lon="4.44733">
        <ele>1148</ele>
        <time>2016-02-21T16:01:52.000Z</time>
      </trkpt>
      <trkpt lat="45.31767" lon="4.44733">
        <ele>1148</ele>
        <time>2016-02-21T16:01:53.000Z</time>
      </trkpt>
      <trkpt lat="45.3179" lon="4.44731">
        <ele>1141</ele>
        <time>2016-02-21T16:02:26.000Z</time>
      </trkpt>
      <trkpt lat="45.31791" lon="4.44731">
        <ele>1141</ele>
        <time>2016-02-21T16:02:27.000Z</time>
      </trkpt>
      <trkpt lat="45.31813" lon="4.44733">
        <ele>1142</ele>
        <time>2016-02-21T16:02:54.000Z</time>
      </trkpt>
      <trkpt lat="45.31814" lon="4.44734">
        <ele>1141</ele>
        <time>2016-02-21T16:02:55.000Z</time>
      </trkpt>
      <trkpt lat="45.31834" lon="4.44749">
        <ele>1137</ele>
        <time>2016-02-21T16:03:21.000Z</time>
      </trkpt>
      <trkpt lat="45.31835" lon="4.4475">
        <ele>1137</ele>
        <time>2016-02-21T16:03:22.000Z</time>
      </trkpt>
      <trkpt lat="45.31855" lon="4.44766">
        <ele>1127</ele>
        <time>2016-02-21T16:03:54.000Z</time>
      </trkpt>
      <trkpt lat="45.31856" lon="4.44766">
        <ele>1127</ele>
        <time>2016-02-21T16:03:55.000Z</time>
      </trkpt>
      <trkpt lat="45.31878" lon="4.44775">
        <ele>1125</ele>
        <time>2016-02-21T16:04:24.000Z</time>
      </trkpt>
      <trkpt lat="45.31879" lon="4.44775">
        <ele>1125</ele>
        <time>2016-02-21T16:04:25.000Z</time>
      </trkpt>
      <trkpt lat="45.319" lon="4.44786">
        <ele>1124</ele>
        <time>2016-02-21T16:04:45.000Z</time>
      </trkpt>
      <trkpt lat="45.31901" lon="4.44786">
        <ele>1124</ele>
        <time>2016-02-21T16:04:46.000Z</time>
      </trkpt>
      <trkpt lat="45.31916" lon="4.44761">
        <ele>1122</ele>
        <time>2016-02-21T16:05:40.000Z</time>
      </trkpt>
      <trkpt lat="45.31916" lon="4.44759">
        <ele>1122</ele>
        <time>2016-02-21T16:05:41.000Z</time>
      </trkpt>
      <trkpt lat="45.31913" lon="4.44727">
        <ele>1120</ele>
        <time>2016-02-21T16:06:05.000Z</time>
      </trkpt>
      <trkpt lat="45.31913" lon="4.44725">
        <ele>1119</ele>
        <time>2016-02-21T16:06:06.000Z</time>
      </trkpt>
      <trkpt lat="45.31903" lon="4.44697">
        <ele>1114</ele>
        <time>2016-02-21T16:06:25.000Z</time>
      </trkpt>
      <trkpt lat="45.31902" lon="4.44695">
        <ele>1114</ele>
        <time>2016-02-21T16:06:26.000Z</time>
      </trkpt>
      <trkpt lat="45.31897" lon="4.44664">
        <ele>1115</ele>
        <time>2016-02-21T16:06:46.000Z</time>
      </trkpt>
      <trkpt lat="45.31897" lon="4.44663">
        <ele>1115</ele>
        <time>2016-02-21T16:06:47.000Z</time>
      </trkpt>
      <trkpt lat="45.31902" lon="4.44631">
        <ele>1110</ele>
        <time>2016-02-21T16:07:12.000Z</time>
      </trkpt>
      <trkpt lat="45.31902" lon="4.44631">
        <ele>1110</ele>
        <time>2016-02-21T16:07:13.000Z</time>
      </trkpt>
      <trkpt lat="45.31902" lon="4.44598">
        <ele>1117</ele>
        <time>2016-02-21T16:07:39.000Z</time>
      </trkpt>
      <trkpt lat="45.31902" lon="4.44597">
        <ele>1117</ele>
        <time>2016-02-21T16:07:40.000Z</time>
      </trkpt>
      <trkpt lat="45.31889" lon="4.4457">
        <ele>1114</ele>
        <time>2016-02-21T16:07:58.000Z</time>
      </trkpt>
      <trkpt lat="45.31888" lon="4.44569">
        <ele>1113</ele>
        <time>2016-02-21T16:07:59.000Z</time>
      </trkpt>
      <trkpt lat="45.31876" lon="4.44542">
        <ele>1106</ele>
        <time>2016-02-21T16:08:16.000Z</time>
      </trkpt>
      <trkpt lat="45.31874" lon="4.44541">
        <ele>1106</ele>
        <time>2016-02-21T16:08:17.000Z</time>
      </trkpt>
      <trkpt lat="45.31867" lon="4.4451">
        <ele>1102</ele>
        <time>2016-02-21T16:08:42.000Z</time>
      </trkpt>
      <trkpt lat="45.31867" lon="4.44508">
        <ele>1102</ele>
        <time>2016-02-21T16:08:43.000Z</time>
      </trkpt>
      <trkpt lat="45.31863" lon="4.44477">
        <ele>1102</ele>
        <time>2016-02-21T16:09:06.000Z</time>
      </trkpt>
      <trkpt lat="45.31863" lon="4.44475">
        <ele>1102</ele>
        <time>2016-02-21T16:09:07.000Z</time>
      </trkpt>
      <trkpt lat="45.31854" lon="4.44445">
        <ele>1101</ele>
        <time>2016-02-21T16:09:27.000Z</time>
      </trkpt>
      <trkpt lat="45.31853" lon="4.44444">
        <ele>1101</ele>
        <time>2016-02-21T16:09:28.000Z</time>
      </trkpt>
      <trkpt lat="45.31839" lon="4.44418">
        <ele>1100</ele>
        <time>2016-02-21T16:09:48.000Z</time>
      </trkpt>
      <trkpt lat="45.31838" lon="4.44417">
        <ele>1101</ele>
        <time>2016-02-21T16:09:49.000Z</time>
      </trkpt>
      <trkpt lat="45.31825" lon="4.44389">
        <ele>1109</ele>
        <time>2016-02-21T16:10:07.000Z</time>
      </trkpt>
      <trkpt lat="45.31824" lon="4.44389">
        <ele>1109</ele>
        <time>2016-02-21T16:10:08.000Z</time>
      </trkpt>
      <trkpt lat="45.31815" lon="4.4436">
        <ele>1104</ele>
        <time>2016-02-21T16:10:27.000Z</time>
      </trkpt>
      <trkpt lat="45.31815" lon="4.44358">
        <ele>1104</ele>
        <time>2016-02-21T16:10:28.000Z</time>
      </trkpt>
      <trkpt lat="45.31805" lon="4.44328">
        <ele>1104</ele>
        <time>2016-02-21T16:10:46.000Z</time>
      </trkpt>
      <trkpt lat="45.31805" lon="4.44327">
        <ele>1104</ele>
        <time>2016-02-21T16:10:47.000Z</time>
      </trkpt>
      <trkpt lat="45.31796" lon="4.44298">
        <ele>1104</ele>
        <time>2016-02-21T16:11:06.000Z</time>
      </trkpt>
      <trkpt lat="45.31796" lon="4.44297">
        <ele>1104</ele>
        <time>2016-02-21T16:11:07.000Z</time>
      </trkpt>
      <trkpt lat="45.31782" lon="4.44271">
        <ele>1104</ele>
        <time>2016-02-21T16:11:24.000Z</time>
      </trkpt>
      <trkpt lat="45.31782" lon="4.44269">
        <ele>1104</ele>
        <time>2016-02-21T16:11:25.000Z</time>
      </trkpt>
      <trkpt lat="45.31772" lon="4.4424">
        <ele>1106</ele>
        <time>2016-02-21T16:11:50.000Z</time>
      </trkpt>
      <trkpt lat="45.31772" lon="4.44238">
        <ele>1106</ele>
        <time>2016-02-21T16:11:51.000Z</time>
      </trkpt>
      <trkpt lat="45.31762" lon="4.44208">
        <ele>1098</ele>
        <time>2016-02-21T16:12:11.000Z</time>
      </trkpt>
      <trkpt lat="45.31762" lon="4.44207">
        <ele>1097</ele>
        <time>2016-02-21T16:12:12.000Z</time>
      </trkpt>
      <trkpt lat="45.3176" lon="4.44175">
        <ele>1099</ele>
        <time>2016-02-21T16:12:33.000Z</time>
      </trkpt>
      <trkpt lat="45.3176" lon="4.44174">
        <ele>1099</ele>
        <time>2016-02-21T16:12:34.000Z</time>
      </trkpt>
      <trkpt lat="45.31754" lon="4.44143">
        <ele>1100</ele>
        <time>2016-02-21T16:12:57.000Z</time>
      </trkpt>
      <trkpt lat="45.31753" lon="4.44142">
        <ele>1100</ele>
        <time>2016-02-21T16:12:58.000Z</time>
      </trkpt>
      <trkpt lat="45.31747" lon="4.4411">
        <ele>1088</ele>
        <time>2016-02-21T16:13:18.000Z</time>
      </trkpt>
      <trkpt lat="45.31747" lon="4.44109">
        <ele>1088</ele>
        <time>2016-02-21T16:13:19.000Z</time>
      </trkpt>
      <trkpt lat="45.31735" lon="4.44081">
        <ele>1094</ele>
        <time>2016-02-21T16:13:40.000Z</time>
      </trkpt>
      <trkpt lat="45.31734" lon="4.44079">
        <ele>1094</ele>
        <time>2016-02-21T16:13:41.000Z</time>
      </trkpt>
      <trkpt lat="45.31721" lon="4.44052">
        <ele>1095</ele>
        <time>2016-02-21T16:13:58.000Z</time>
      </trkpt>
      <trkpt lat="45.3172" lon="4.4405">
        <ele>1096</ele>
        <time>2016-02-21T16:13:59.000Z</time>
      </trkpt>
      <trkpt lat="45.3171" lon="4.4402">
        <ele>1091</ele>
        <time>2016-02-21T16:14:19.000Z</time>
      </trkpt>
      <trkpt lat="45.31708" lon="4.44019">
        <ele>1091</ele>
        <time>2016-02-21T16:14:20.000Z</time>
      </trkpt>
      <trkpt lat="45.31693" lon="4.43996">
        <ele>1086</ele>
        <time>2016-02-21T16:14:37.000Z</time>
      </trkpt>
      <trkpt lat="45.31691" lon="4.43994">
        <ele>1086</ele>
        <time>2016-02-21T16:14:38.000Z</time>
      </trkpt>
      <trkpt lat="45.31675" lon="4.4397">
        <ele>1086</ele>
        <time>2016-02-21T16:14:56.000Z</time>
      </trkpt>
      <trkpt lat="45.31675" lon="4.43968">
        <ele>1086</ele>
        <time>2016-02-21T16:14:57.000Z</time>
      </trkpt>
      <trkpt lat="45.3166" lon="4.43943">
        <ele>1085</ele>
        <time>2016-02-21T16:15:15.000Z</time>
      </trkpt>
      <trkpt lat="45.3166" lon="4.43942">
        <ele>1086</ele>
        <time>2016-02-21T16:15:16.000Z</time>
      </trkpt>
      <trkpt lat="45.31648" lon="4.43913">
        <ele>1089</ele>
        <time>2016-02-21T16:15:37.000Z</time>
      </trkpt>
      <trkpt lat="45.31648" lon="4.43912">
        <ele>1089</ele>
        <time>2016-02-21T16:15:38.000Z</time>
      </trkpt>
      <trkpt lat="45.31637" lon="4.43882">
        <ele>1086</ele>
        <time>2016-02-21T16:15:57.000Z</time>
      </trkpt>
      <trkpt lat="45.31636" lon="4.4388">
        <ele>1085</ele>
        <time>2016-02-21T16:15:58.000Z</time>
      </trkpt>
      <trkpt lat="45.31627" lon="4.4385">
        <ele>1081</ele>
        <time>2016-02-21T16:16:17.000Z</time>
      </trkpt>
      <trkpt lat="45.31627" lon="4.43849">
        <ele>1081</ele>
        <time>2016-02-21T16:16:18.000Z</time>
      </trkpt>
      <trkpt lat="45.31624" lon="4.43817">
        <ele>1076</ele>
        <time>2016-02-21T16:16:38.000Z</time>
      </trkpt>
      <trkpt lat="45.31624" lon="4.43815">
        <ele>1075</ele>
        <time>2016-02-21T16:16:39.000Z</time>
      </trkpt>
      <trkpt lat="45.31635" lon="4.43787">
        <ele>1074</ele>
        <time>2016-02-21T16:17:13.000Z</time>
      </trkpt>
      <trkpt lat="45.31635" lon="4.43786">
        <ele>1074</ele>
        <time>2016-02-21T16:17:14.000Z</time>
      </trkpt>
      <trkpt lat="45.31633" lon="4.43754">
        <ele>1069</ele>
        <time>2016-02-21T16:17:32.000Z</time>
      </trkpt>
      <trkpt lat="45.31633" lon="4.43752">
        <ele>1069</ele>
        <time>2016-02-21T16:17:33.000Z</time>
      </trkpt>
      <trkpt lat="45.31635" lon="4.4372">
        <ele>1063</ele>
        <time>2016-02-21T16:17:51.000Z</time>
      </trkpt>
      <trkpt lat="45.31635" lon="4.43718">
        <ele>1063</ele>
        <time>2016-02-21T16:17:52.000Z</time>
      </trkpt>
      <trkpt lat="45.31649" lon="4.43692">
        <ele>1065</ele>
        <time>2016-02-21T16:18:12.000Z</time>
      </trkpt>
      <trkpt lat="45.3165" lon="4.43691">
        <ele>1066</ele>
        <time>2016-02-21T16:18:13.000Z</time>
      </trkpt>
      <trkpt lat="45.31667" lon="4.43667">
        <ele>1070</ele>
        <time>2016-02-21T16:18:31.000Z</time>
      </trkpt>
      <trkpt lat="45.31667" lon="4.43667">
        <ele>1070</ele>
        <time>2016-02-21T16:18:32.000Z</time>
      </trkpt>
      <trkpt lat="45.31685" lon="4.43645">
        <ele>1071</ele>
        <time>2016-02-21T16:18:50.000Z</time>
      </trkpt>
      <trkpt lat="45.31686" lon="4.43644">
        <ele>1071</ele>
        <time>2016-02-21T16:18:51.000Z</time>
      </trkpt>
      <trkpt lat="45.31699" lon="4.43617">
        <ele>1070</ele>
        <time>2016-02-21T16:19:09.000Z</time>
      </trkpt>
      <trkpt lat="45.317" lon="4.43615">
        <ele>1069</ele>
        <time>2016-02-21T16:19:10.000Z</time>
      </trkpt>
      <trkpt lat="45.3171" lon="4.43587">
        <ele>1063</ele>
        <time>2016-02-21T16:19:29.000Z</time>
      </trkpt>
      <trkpt lat="45.31711" lon="4.43585">
        <ele>1063</ele>
        <time>2016-02-21T16:19:30.000Z</time>
      </trkpt>
      <trkpt lat="45.31721" lon="4.43557">
        <ele>1072</ele>
        <time>2016-02-21T16:20:14.000Z</time>
      </trkpt>
      <trkpt lat="45.31721" lon="4.43556">
        <ele>1072</ele>
        <time>2016-02-21T16:20:15.000Z</time>
      </trkpt>
      <trkpt lat="45.31717" lon="4.43524">
        <ele>1072</ele>
        <time>2016-02-21T16:20:47.000Z</time>
      </trkpt>
      <trkpt lat="45.31717" lon="4.43522">
        <ele>1072</ele>
        <time>2016-02-21T16:20:48.000Z</time>
      </trkpt>
      <trkpt lat="45.31711" lon="4.43491">
        <ele>1063</ele>
        <time>2016-02-21T16:21:07.000Z</time>
      </trkpt>
      <trkpt lat="45.31711" lon="4.43489">
        <ele>1062</ele>
        <time>2016-02-21T16:21:08.000Z</time>
      </trkpt>
      <trkpt lat="45.31703" lon="4.43459">
        <ele>1061</ele>
        <time>2016-02-21T16:21:26.000Z</time>
      </trkpt>
      <trkpt lat="45.31703" lon="4.43457">
        <ele>1061</ele>
        <time>2016-02-21T16:21:27.000Z</time>
      </trkpt>
      <trkpt lat="45.31699" lon="4.43424">
        <ele>1058</ele>
        <time>2016-02-21T16:21:46.000Z</time>
      </trkpt>
      <trkpt lat="45.31699" lon="4.43422">
        <ele>1057</ele>
        <time>2016-02-21T16:21:47.000Z</time>
      </trkpt>
      <trkpt lat="45.31699" lon="4.4339">
        <ele>1053</ele>
        <time>2016-02-21T16:22:05.000Z</time>
      </trkpt>
      <trkpt lat="45.31699" lon="4.43388">
        <ele>1053</ele>
        <time>2016-02-21T16:22:06.000Z</time>
      </trkpt>
      <trkpt lat="45.31699" lon="4.43356">
        <ele>1049</ele>
        <time>2016-02-21T16:22:24.000Z</time>
      </trkpt>
      <trkpt lat="45.31699" lon="4.43354">
        <ele>1049</ele>
        <time>2016-02-21T16:22:25.000Z</time>
      </trkpt>
      <trkpt lat="45.31702" lon="4.43322">
        <ele>1052</ele>
        <time>2016-02-21T16:22:43.000Z</time>
      </trkpt>
      <trkpt lat="45.31702" lon="4.4332">
        <ele>1052</ele>
        <time>2016-02-21T16:22:44.000Z</time>
      </trkpt>
      <trkpt lat="45.31705" lon="4.43288">
        <ele>1049</ele>
        <time>2016-02-21T16:23:02.000Z</time>
      </trkpt>
      <trkpt lat="45.31706" lon="4.43286">
        <ele>1049</ele>
        <time>2016-02-21T16:23:03.000Z</time>
      </trkpt>
      <trkpt lat="45.31711" lon="4.43254">
        <ele>1044</ele>
        <time>2016-02-21T16:23:21.000Z</time>
      </trkpt>
      <trkpt lat="45.31712" lon="4.43253">
        <ele>1044</ele>
        <time>2016-02-21T16:23:22.000Z</time>
      </trkpt>
      <trkpt lat="45.31716" lon="4.43221">
        <ele>1039</ele>
        <time>2016-02-21T16:23:41.000Z</time>
      </trkpt>
      <trkpt lat="45.31715" lon="4.43219">
        <ele>1038</ele>
        <time>2016-02-21T16:23:42.000Z</time>
      </trkpt>
      <trkpt lat="45.31711" lon="4.43187">
        <ele>1036</ele>
        <time>2016-02-21T16:24:00.000Z</time>
      </trkpt>
      <trkpt lat="45.31711" lon="4.43186">
        <ele>1035</ele>
        <time>2016-02-21T16:24:01.000Z</time>
      </trkpt>
      <trkpt lat="45.31706" lon="4.43154">
        <ele>1033</ele>
        <time>2016-02-21T16:24:19.000Z</time>
      </trkpt>
      <trkpt lat="45.31706" lon="4.43153">
        <ele>1033</ele>
        <time>2016-02-21T16:24:20.000Z</time>
      </trkpt>
      <trkpt lat="45.31703" lon="4.4312">
        <ele>1029</ele>
        <time>2016-02-21T16:24:39.000Z</time>
      </trkpt>
      <trkpt lat="45.31703" lon="4.43118">
        <ele>1029</ele>
        <time>2016-02-21T16:24:40.000Z</time>
      </trkpt>
      <trkpt lat="45.31699" lon="4.43087">
        <ele>1024</ele>
        <time>2016-02-21T16:24:58.000Z</time>
      </trkpt>
      <trkpt lat="45.31699" lon="4.43085">
        <ele>1024</ele>
        <time>2016-02-21T16:24:59.000Z</time>
      </trkpt>
      <trkpt lat="45.31697" lon="4.43052">
        <ele>1023</ele>
        <time>2016-02-21T16:25:16.000Z</time>
      </trkpt>
      <trkpt lat="45.31697" lon="4.4305">
        <ele>1023</ele>
        <time>2016-02-21T16:25:17.000Z</time>
      </trkpt>
      <trkpt lat="45.31696" lon="4.43018">
        <ele>1020</ele>
        <time>2016-02-21T16:25:34.000Z</time>
      </trkpt>
      <trkpt lat="45.31696" lon="4.43016">
        <ele>1020</ele>
        <time>2016-02-21T16:25:35.000Z</time>
      </trkpt>
      <trkpt lat="45.31695" lon="4.42983">
        <ele>1027</ele>
        <time>2016-02-21T16:25:52.000Z</time>
      </trkpt>
      <trkpt lat="45.31695" lon="4.42981">
        <ele>1027</ele>
        <time>2016-02-21T16:25:53.000Z</time>
      </trkpt>
      <trkpt lat="45.31694" lon="4.42949">
        <ele>1029</ele>
        <time>2016-02-21T16:26:12.000Z</time>
      </trkpt>
      <trkpt lat="45.31694" lon="4.42948">
        <ele>1029</ele>
        <time>2016-02-21T16:26:13.000Z</time>
      </trkpt>
      <trkpt lat="45.31698" lon="4.42939">
        <ele>1034</ele>
        <time>2016-02-21T16:26:56.000Z</time>
      </trkpt>
    </trkseg>
  </trk>
</gpx>